Terminal Aerodrome Forecast
Issued by NWS Shreveport, LA

Home | Current Version | Previous Version | Text Only | Print | Product List | Glossary On
Versions: 1 2 3 4 5 6 7 8 9 10 11 12 13 14 15 16
578
FTUS44 KSHV 211744
TAFMLU
TAF
KMLU 211744Z 2118/2218 VRB04KT P6SM BKN050
     FM220000 36003KT P6SM BKN040
     FM220400 36005KT P6SM SCT040 BKN250
     FM220800 01007KT P6SM FEW250
     FM221300 02012KT P6SM SKC=

USA.gov is the U.S. government's official web portal to all federal, state and local government web resources and services.